Time;durP1;ratioP1;P1;durP2;ratioP2;P2;SDS_P1;SDS_P2;PMS_P1;PMS_P2;Temp;Humidity;BMP_temperature;BMP_pressure;BME280_temperature;BME280_humidity;BME280_pressure;Samples;Min_cycle;Max_cycle;Signal;HPM_P1;HPM_P2
2022/06/26 00:01:08;;;;;;;12.60;10.30;;;;;;;17.59;100.00;100502.06;5058260;28;20226;-74
2022/06/26 00:03:34;;;;;;;12.13;9.77;;;;;;;17.60;100.00;100507.25;5059995;28;20219;-74
2022/06/26 00:06:02;;;;;;;10.80;9.57;;;;;;;17.60;100.00;100498.50;5058014;28;20209;-74
2022/06/26 00:08:28;;;;;;;12.20;9.23;;;;;;;17.54;100.00;100497.06;5056480;28;20190;-74
2022/06/26 00:10:55;;;;;;;11.93;10.30;;;;;;;17.52;100.00;100501.56;5054812;28;20664;-75
2022/06/26 00:13:21;;;;;;;12.37;9.23;;;;;;;17.52;100.00;100512.13;5039465;28;20223;-74
2022/06/26 00:15:47;;;;;;;11.20;9.00;;;;;;;17.53;100.00;100508.53;5051889;28;20200;-75
2022/06/26 00:18:14;;;;;;;15.13;10.47;;;;;;;17.49;100.00;100499.09;5054874;28;20690;-74
2022/06/26 00:20:41;;;;;;;13.47;10.90;;;;;;;17.51;100.00;100513.03;5057469;28;20251;-75
2022/06/26 00:23:09;;;;;;;13.27;11.20;;;;;;;17.49;100.00;100508.81;5053954;28;20300;-74
2022/06/26 00:25:36;;;;;;;13.30;11.03;;;;;;;17.42;100.00;100510.94;5053106;28;20204;-75
2022/06/26 00:28:02;;;;;;;12.60;10.40;;;;;;;17.42;100.00;100509.13;5057748;28;20191;-75
2022/06/26 00:30:28;;;;;;;12.27;10.10;;;;;;;17.36;100.00;100520.03;5059046;28;20190;-75
2022/06/26 00:32:55;;;;;;;11.13;9.47;;;;;;;17.33;100.00;100517.56;5036864;28;20229;-74
2022/06/26 00:35:21;;;;;;;12.93;10.43;;;;;;;17.34;100.00;100521.91;5057057;28;20202;-75
2022/06/26 00:37:48;;;;;;;14.40;10.70;;;;;;;17.37;100.00;100520.88;5057344;28;20214;-75
2022/06/26 00:40:16;;;;;;;14.47;10.30;;;;;;;17.31;100.00;100532.63;5049643;28;20224;-74
2022/06/26 00:42:43;;;;;;;14.77;10.70;;;;;;;17.33;100.00;100530.75;5052093;28;20245;-75
2022/06/26 00:45:10;;;;;;;12.87;10.63;;;;;;;17.36;100.00;100524.44;5057969;28;20195;-75
2022/06/26 00:47:37;;;;;;;11.17;9.57;;;;;;;17.31;100.00;100534.41;5050916;28;20738;-75
2022/06/26 00:50:07;;;;;;;13.40;10.27;;;;;;;17.25;100.00;100540.00;5052330;28;20225;-74
2022/06/26 00:52:36;;;;;;;12.83;10.67;;;;;;;17.19;100.00;100544.69;5055887;28;21046;-74
2022/06/26 00:55:03;;;;;;;15.37;9.87;;;;;;;17.13;100.00;100546.78;5055139;28;20552;-75
2022/06/26 00:57:33;;;;;;;15.07;10.00;;;;;;;17.08;100.00;100547.06;5054861;28;20220;-75
2022/06/26 01:00:00;;;;;;;11.93;9.80;;;;;;;17.09;100.00;100543.47;5057567;28;20585;-74
2022/06/26 01:02:26;;;;;;;11.63;9.60;;;;;;;17.12;100.00;100547.75;5053412;28;20214;-74
2022/06/26 01:04:52;;;;;;;11.57;9.50;;;;;;;17.13;100.00;100546.78;5037735;28;20202;-74
2022/06/26 01:07:19;;;;;;;13.13;9.77;;;;;;;17.12;100.00;100547.75;5056981;28;20697;-75
2022/06/26 01:09:45;;;;;;;10.60;9.20;;;;;;;17.09;100.00;100545.28;5042380;28;20207;-74
2022/06/26 01:12:12;;;;;;;10.53;9.43;;;;;;;17.09;100.00;100556.66;5053858;28;20891;-74
2022/06/26 01:14:40;;;;;;;11.87;9.77;;;;;;;16.98;100.00;100551.97;5037880;28;20203;-75
2022/06/26 01:17:07;;;;;;;12.17;10.00;;;;;;;16.96;100.00;100547.72;5053560;28;20203;-74
2022/06/26 01:19:35;;;;;;;12.70;9.40;;;;;;;17.05;100.00;100551.66;5036351;28;20309;-74
2022/06/26 01:22:01;;;;;;;15.17;10.17;;;;;;;16.97;100.00;100552.91;5036579;28;20223;-74
2022/06/26 01:24:29;;;;;;;12.43;10.30;;;;;;;16.88;100.00;100555.19;5033111;28;20621;-74
2022/06/26 01:26:55;;;;;;;12.80;9.83;;;;;;;16.75;100.00;100552.34;5050512;28;20214;-74
2022/06/26 01:29:22;;;;;;;12.80;10.43;;;;;;;16.67;100.00;100552.72;5042954;28;20647;-74
2022/06/26 01:31:49;;;;;;;12.10;10.17;;;;;;;16.66;100.00;100549.25;5039642;28;20286;-75
2022/06/26 01:34:16;;;;;;;12.67;9.87;;;;;;;16.82;100.00;100554.53;5041457;28;20220;-74
2022/06/26 01:36:42;;;;;;;13.70;10.67;;;;;;;16.86;100.00;100551.78;5037583;28;20219;-75
2022/06/26 01:39:09;;;;;;;15.50;10.77;;;;;;;16.85;100.00;100556.22;5043455;28;20747;-74
2022/06/26 01:41:37;;;;;;;11.07;9.70;;;;;;;16.86;100.00;100551.78;5053883;28;20219;-75
2022/06/26 01:44:07;;;;;;;13.60;10.50;;;;;;;16.88;100.00;100552.56;5044245;28;20210;-74
2022/06/26 01:46:33;;;;;;;10.63;9.20;;;;;;;16.86;100.00;100549.16;5043016;28;20235;-74
2022/06/26 01:49:00;;;;;;;12.20;9.23;;;;;;;16.82;100.00;100553.69;5038132;28;20195;-74
2022/06/26 01:51:26;;;;;;;12.57;10.20;;;;;;;16.73;100.00;100555.03;5059219;28;20195;-74
2022/06/26 01:53:53;;;;;;;11.00;9.70;;;;;;;16.79;100.00;100553.84;5040825;28;20211;-74
2022/06/26 01:56:19;;;;;;;12.37;9.60;;;;;;;16.78;100.00;100555.66;5042687;28;20689;-75
2022/06/26 01:58:51;;;;;;;11.93;10.53;;;;;;;16.77;100.00;100553.09;5042995;28;20223;-74
2022/06/26 02:01:21;;;;;;;11.47;9.50;;;;;;;16.73;100.00;100551.56;5040545;28;20626;-75
2022/06/26 02:03:50;;;;;;;12.70;10.30;;;;;;;16.67;100.00;100550.09;5042563;28;20582;-75
2022/06/26 02:06:16;;;;;;;13.67;10.17;;;;;;;16.68;100.00;100558.84;5041650;28;20284;-75
2022/06/26 02:08:43;;;;;;;11.37;9.73;;;;;;;16.62;100.00;100562.63;5063802;28;20199;-74
2022/06/26 02:13:57;;;;;;;11.97;9.17;;;;;;;16.61;100.00;100564.41;5039251;28;20199;-75
2022/06/26 02:16:32;;;;;;;10.90;9.43;;;;;;;16.65;100.00;100568.59;5057726;28;20198;-74
2022/06/26 02:18:59;;;;;;;12.13;9.60;;;;;;;16.61;100.00;100566.22;5044340;28;20336;-75
2022/06/26 02:21:28;;;;;;;11.73;9.47;;;;;;;16.58;100.00;100558.47;5060911;28;20661;-74
2022/06/26 02:23:59;;;;;;;11.43;10.13;;;;;;;16.47;100.00;100573.03;5043607;28;20573;-75
2022/06/26 02:26:25;;;;;;;11.87;9.17;;;;;;;16.50;100.00;100576.44;5062819;28;20225;-74
2022/06/26 02:28:55;;;;;;;11.07;9.03;;;;;;;16.48;100.00;100579.16;5053927;28;20750;-75
2022/06/26 02:31:23;;;;;;;12.43;9.70;;;;;;;16.47;100.00;100588.81;5038580;28;20650;-75
2022/06/26 02:33:50;;;;;;;11.53;9.60;;;;;;;16.41;100.00;100589.16;5039548;28;20206;-74
2022/06/26 02:36:16;;;;;;;12.70;9.83;;;;;;;16.41;100.00;100581.25;5056252;28;20205;-75
2022/06/26 02:38:43;;;;;;;14.60;9.30;;;;;;;16.44;100.00;100585.50;5056918;28;20341;-75
2022/06/26 02:41:09;;;;;;;11.50;9.37;;;;;;;16.41;100.00;100585.66;5042858;28;20659;-74
2022/06/26 02:43:37;;;;;;;11.80;9.47;;;;;;;16.39;100.00;100585.75;5038888;28;20224;-75
2022/06/26 02:46:05;;;;;;;13.93;10.70;;;;;;;16.36;100.00;100585.91;5037962;28;20290;-75
2022/06/26 02:48:33;;;;;;;11.67;9.60;;;;;;;16.39;100.00;100583.13;5042819;28;20555;-74
2022/06/26 02:50:59;;;;;;;12.00;10.37;;;;;;;16.34;100.00;100584.25;5044772;28;20267;-75
2022/06/26 02:53:26;;;;;;;11.63;9.67;;;;;;;16.40;100.00;100584.81;5043898;28;20461;-75
2022/06/26 02:55:52;;;;;;;13.13;10.00;;;;;;;16.49;100.00;100578.22;5042007;28;20206;-75
2022/06/26 02:58:21;;;;;;;11.83;9.83;;;;;;;16.49;100.00;100587.91;5044124;28;20215;-75
2022/06/26 03:00:56;;;;;;;11.97;10.03;;;;;;;16.49;100.00;100585.28;5037142;28;20593;-74
2022/06/26 03:03:23;;;;;;;11.87;10.07;;;;;;;16.44;100.00;100582.88;5054654;28;20221;-75
2022/06/26 03:05:51;;;;;;;13.17;9.97;;;;;;;16.43;100.00;100589.91;5038462;28;20290;-74
2022/06/26 03:08:21;;;;;;;11.50;9.57;;;;;;;16.45;100.00;100582.78;5039013;28;20744;-74
2022/06/26 03:10:49;;;;;;;11.13;9.93;;;;;;;16.49;100.00;100580.84;5042300;28;20199;-74
2022/06/26 03:13:16;;;;;;;11.63;9.57;;;;;;;16.47;100.00;100574.81;5059711;28;20217;-74
2022/06/26 03:15:44;;;;;;;12.47;10.00;;;;;;;16.57;100.00;100589.22;5043630;28;20202;-75
2022/06/26 03:18:11;;;;;;;11.57;9.70;;;;;;;16.60;100.00;100583.81;5055674;28;20198;-75
2022/06/26 03:20:40;;;;;;;11.23;9.53;;;;;;;16.61;100.00;100587.28;5053809;28;20196;-74
2022/06/26 03:23:10;;;;;;;11.53;9.70;;;;;;;16.53;100.00;100597.34;5038042;28;20778;-74
2022/06/26 03:25:38;;;;;;;12.07;9.73;;;;;;;16.53;100.00;100599.97;5038992;28;21012;-75
2022/06/26 03:28:04;;;;;;;10.63;9.53;;;;;;;16.56;100.00;100603.28;5043536;28;20195;-74
2022/06/26 03:30:36;;;;;;;13.33;10.27;;;;;;;16.54;100.00;100605.16;5037907;28;20593;-75
2022/06/26 03:33:02;;;;;;;11.27;10.03;;;;;;;16.66;100.00;100608.94;5041050;28;20228;-75
2022/06/26 03:35:30;;;;;;;13.90;10.20;;;;;;;16.67;100.00;100602.72;5037268;28;20195;-74
2022/06/26 03:37:57;;;;;;;11.87;9.57;;;;;;;16.81;100.00;100600.22;5052889;28;20300;-75
2022/06/26 03:40:25;;;;;;;9.80;8.80;;;;;;;16.83;100.00;100615.94;5038104;28;20225;-74
2022/06/26 03:42:51;;;;;;;12.53;9.27;;;;;;;16.95;100.00;100617.97;5041233;28;20242;-74
2022/06/26 03:45:20;;;;;;;12.60;9.27;;;;;;;16.97;100.00;100613.50;5040400;28;20703;-74
2022/06/26 03:47:47;;;;;;;10.53;8.63;;;;;;;17.06;100.00;100609.50;5039413;28;20203;-74
2022/06/26 03:50:13;;;;;;;10.57;9.10;;;;;;;17.21;100.00;100615.72;5039387;28;20662;-74
2022/06/26 03:52:40;;;;;;;9.53;8.50;;;;;;;17.27;100.00;100619.81;5059504;28;20224;-74
2022/06/26 03:55:09;;;;;;;10.00;8.53;;;;;;;17.38;100.00;100614.81;5035787;28;20667;-74
2022/06/26 03:57:37;;;;;;;9.90;8.63;;;;;;;17.47;100.00;100616.94;5037577;28;20605;-74
2022/06/26 04:00:05;;;;;;;10.50;8.40;;;;;;;17.59;100.00;100618.06;5035733;28;20226;-75
2022/06/26 04:02:45;;;;;;;9.87;8.23;;;;;;;17.71;100.00;100611.25;5057522;28;20263;-74
2022/06/26 04:05:17;;;;;;;10.73;8.13;;;;;;;17.84;100.00;100611.41;5037738;28;20252;-74
2022/06/26 04:07:44;;;;;;;9.77;8.53;;;;;;;17.97;100.00;100618.53;5043242;28;20769;-74
2022/06/26 04:10:21;;;;;;;8.93;7.97;;;;;;;18.08;100.00;100610.03;5041578;28;20248;-74
2022/06/26 04:12:49;;;;;;;9.17;7.90;;;;;;;18.20;100.00;100612.91;5039245;28;20284;-74
2022/06/26 04:15:15;;;;;;;11.03;8.20;;;;;;;18.30;100.00;100617.53;5041027;28;20206;-75
2022/06/26 04:17:42;;;;;;;10.13;8.37;;;;;;;18.41;100.00;100616.91;5043378;28;20297;-75
2022/06/26 04:20:13;;;;;;;10.80;7.60;;;;;;;18.52;100.00;100609.22;5044516;28;20309;-74
2022/06/26 04:22:40;;;;;;;8.50;7.37;;;;;;;18.65;100.00;100609.31;5040769;28;20222;-74
2022/06/26 04:25:11;;;;;;;8.70;7.80;;;;;;;18.80;100.00;100609.34;5041106;28;20206;-75
2022/06/26 04:27:37;;;;;;;9.37;7.40;;;;;;;18.95;100.00;100615.53;5038200;28;20211;-74
2022/06/26 04:30:07;;;;;;;9.00;6.57;;;;;;;19.09;100.00;100621.63;5045184;28;20248;-74
2022/06/26 04:32:33;;;;;;;8.07;7.27;;;;;;;19.22;100.00;100623.53;5041257;28;20231;-74
2022/06/26 04:35:00;;;;;;;6.97;6.27;;;;;;;19.33;100.00;100613.13;5038562;28;20209;-74
2022/06/26 04:37:26;;;;;;;9.10;6.77;;;;;;;19.45;100.00;100619.44;5058465;28;20253;-74
2022/06/26 04:39:52;;;;;;;7.20;6.40;;;;;;;19.56;100.00;100624.03;5045216;28;20215;-75
2022/06/26 04:42:19;;;;;;;7.73;6.90;;;;;;;19.65;100.00;100626.94;5041051;28;20284;-74
2022/06/26 04:44:45;;;;;;;8.30;7.40;;;;;;;19.71;100.00;100620.41;5042033;28;20289;-74
2022/06/26 04:47:13;;;;;;;8.80;6.90;;;;;;;19.79;100.00;100628.75;5034793;28;20793;-74
2022/06/26 04:49:54;;;;;;;7.77;6.37;;;;;;;19.90;100.00;100624.56;5038413;28;20191;-74
2022/06/26 04:52:20;;;;;;;6.83;6.13;;;;;;;20.00;100.00;100631.78;5058089;28;20234;-74
2022/06/26 04:54:50;;;;;;;6.67;6.03;;;;;;;20.13;100.00;100628.31;5037314;28;20211;-74
2022/06/26 04:57:17;;;;;;;7.20;6.50;;;;;;;20.23;100.00;100632.91;5044106;28;20195;-75
2022/06/26 04:59:48;;;;;;;6.87;6.17;;;;;;;20.32;100.00;100631.44;5041580;28;20222;-74
2022/06/26 05:02:15;;;;;;;7.67;6.30;;;;;;;20.45;100.00;100634.09;5038497;28;20812;-75
2022/06/26 05:04:57;;;;;;;8.97;6.33;;;;;;;20.63;100.00;100641.78;5036338;28;20674;-74
2022/06/26 05:07:42;;;;;;;6.80;6.03;;;;;;;20.78;100.00;100635.44;5054890;28;20214;-74
2022/06/26 05:10:09;;;;;;;6.80;6.00;;;;;;;20.93;100.00;100639.69;5058403;28;20199;-74
2022/06/26 05:12:48;;;;;;;6.63;5.80;;;;;;;21.11;100.00;100639.38;5040471;28;20246;-75
2022/06/26 05:15:47;;;;;;;6.53;5.93;;;;;;;21.21;100.00;100647.50;5049335;28;21409;-74
2022/06/26 05:18:15;;;;;;;6.17;5.57;;;;;;;21.29;100.00;100645.16;5040127;28;20209;-74
2022/06/26 05:20:42;;;;;;;6.30;5.70;;;;;;;21.42;100.00;100650.44;5048213;28;20226;-75
2022/06/26 05:23:09;;;;;;;6.50;5.90;;;;;;;21.44;100.00;100656.47;5057280;28;20222;-75
2022/06/26 05:25:43;;;;;;;9.17;6.07;;;;;;;21.49;100.00;100657.03;5038534;28;20198;-75
2022/06/26 05:28:10;;;;;;;7.23;6.53;;;;;;;21.53;100.00;100654.06;5060618;28;20663;-75
2022/06/26 05:30:37;;;;;;;6.20;5.60;;;;;;;21.61;100.00;100653.50;5038533;28;20198;-75
2022/06/26 05:33:04;;;;;;;5.87;5.30;;;;;;;21.75;100.00;100657.81;5041244;28;20322;-74
2022/06/26 05:35:32;;;;;;;6.70;5.93;;;;;;;21.77;100.00;100657.69;5060218;28;20206;-75
2022/06/26 05:37:58;;;;;;;7.33;5.73;;;;;;;21.87;100.00;100659.56;5059313;28;20585;-74
2022/06/26 05:40:27;;;;;;;6.37;5.63;;;;;;;21.98;100.00;100665.91;5040541;28;20741;-74
2022/06/26 05:42:54;;;;;;;5.90;5.40;;;;;;;22.04;100.00;100655.69;5040447;28;20234;-75
2022/06/26 05:45:24;;;;;;;6.97;5.97;;;;;;;22.12;100.00;100661.25;5049817;28;20202;-74
2022/06/26 05:48:09;;;;;;;7.30;6.20;;;;;;;22.24;100.00;100662.16;5057243;28;20279;-75
2022/06/26 05:51:00;;;;;;;6.17;5.20;;;;;;;22.30;100.00;100664.41;5043758;28;20654;-75
2022/06/26 05:53:38;;;;;;;6.70;5.57;;;;;;;22.38;100.00;100660.31;5056745;28;20206;-74
2022/06/26 05:56:22;;;;;;;6.93;6.10;;;;;;;22.50;100.00;100660.22;5057257;28;20339;-74
2022/06/26 05:59:12;;;;;;;6.47;5.77;;;;;;;22.62;100.00;100665.56;5038832;28;20226;-75
2022/06/26 06:01:45;;;;;;;6.57;5.97;;;;;;;22.68;100.00;100665.94;5039594;28;20217;-74
2022/06/26 06:04:17;;;;;;;6.53;5.82;;;;;;;22.75;99.22;100668.16;5058149;28;20205;-75
2022/06/26 06:06:45;;;;;;;7.57;5.97;;;;;;;22.81;100.00;100678.28;5039399;28;20199;-75
2022/06/26 06:09:13;;;;;;;6.53;5.85;;;;;;;22.84;98.92;100670.09;5040054;28;20202;-75
2022/06/26 06:11:39;;;;;;;7.07;6.30;;;;;;;22.84;98.16;100673.59;5039598;28;20219;-75
2022/06/26 06:14:05;;;;;;;7.40;5.50;;;;;;;22.92;99.67;100666.81;5057072;28;20198;-75
2022/06/26 06:16:32;;;;;;;6.97;6.28;;;;;;;22.97;98.49;100672.63;5036079;28;20202;-75
2022/06/26 06:18:59;;;;;;;6.72;5.82;;;;;;;23.07;97.87;100676.31;5053253;28;20663;-75
2022/06/26 06:21:29;;;;;;;6.75;6.15;;;;;;;23.20;96.74;100684.16;5042661;28;20218;-75
2022/06/26 06:23:56;;;;;;;6.40;5.80;;;;;;;23.33;94.27;100679.59;5036759;28;20555;-74
2022/06/26 06:26:25;;;;;;;6.90;5.75;;;;;;;23.41;96.16;100679.84;5054095;28;20507;-75
2022/06/26 06:28:52;;;;;;;6.88;6.18;;;;;;;23.40;95.35;100683.44;5036356;28;20952;-75
2022/06/26 06:31:19;;;;;;;6.65;6.05;;;;;;;23.52;95.43;100684.28;5037510;28;20198;-75
2022/06/26 06:33:46;;;;;;;6.35;5.75;;;;;;;23.56;94.04;100690.22;5035628;28;20879;-75
2022/06/26 06:36:14;;;;;;;7.28;6.25;;;;;;;23.58;95.18;100685.63;5035498;28;20276;-74
2022/06/26 06:38:40;;;;;;;6.78;6.18;;;;;;;23.66;94.66;100685.84;5056755;28;20310;-75
2022/06/26 06:41:11;;;;;;;6.68;6.00;;;;;;;23.73;93.95;100695.03;5035236;28;20217;-75
2022/06/26 06:43:56;;;;;;;7.88;6.40;;;;;;;23.75;93.43;100701.06;5057446;28;20206;-75
2022/06/26 06:46:28;;;;;;;6.30;5.60;;;;;;;23.83;93.23;100703.13;5054118;28;20260;-75
2022/06/26 06:49:00;;;;;;;6.30;5.70;;;;;;;23.95;92.67;100698.66;5049589;28;20209;-74
2022/06/26 06:51:49;;;;;;;6.70;6.00;;;;;;;24.12;92.47;100703.44;5055607;28;20500;-75
2022/06/26 06:54:16;;;;;;;6.85;5.85;;;;;;;24.21;90.27;100706.31;5045025;28;20642;-74
2022/06/26 06:56:46;;;;;;;6.45;5.85;;;;;;;24.25;90.11;100703.25;5039086;28;20199;-74
2022/06/26 06:59:14;;;;;;;6.57;5.45;;;;;;;24.32;88.66;100708.94;5060075;28;20206;-74
2022/06/26 07:01:40;;;;;;;6.40;5.80;;;;;;;24.43;89.41;100708.91;5040381;28;20238;-74
2022/06/26 07:04:07;;;;;;;8.73;6.50;;;;;;;24.49;89.52;100705.72;5041736;28;20199;-75
2022/06/26 07:06:34;;;;;;;6.47;5.72;;;;;;;24.53;87.64;100714.31;5056436;28;20276;-74
2022/06/26 07:09:00;;;;;;;6.50;5.90;;;;;;;24.64;87.58;100710.75;5043026;28;20286;-74
2022/06/26 07:11:30;;;;;;;6.70;5.95;;;;;;;24.80;89.09;100704.97;5034603;28;20202;-74
2022/06/26 07:13:57;;;;;;;7.47;5.80;;;;;;;24.90;85.75;100701.38;5060973;28;20229;-74
2022/06/26 07:16:24;;;;;;;6.57;5.97;;;;;;;24.93;85.82;100700.28;5058596;28;20667;-74
2022/06/26 07:18:51;;;;;;;7.70;6.13;;;;;;;25.04;83.12;100700.22;5054775;28;20268;-74
2022/06/26 07:21:18;;;;;;;6.40;5.80;;;;;;;25.23;82.67;100702.13;5037868;28;20222;-74
2022/06/26 07:23:45;;;;;;;6.60;5.95;;;;;;;25.35;82.99;100700.25;5053417;28;20207;-74
2022/06/26 07:26:23;;;;;;;6.50;5.88;;;;;;;25.57;80.46;100706.38;5042755;28;20569;-74
2022/06/26 07:28:50;;;;;;;6.45;5.78;;;;;;;25.65;80.23;100704.72;5058160;28;20203;-74
2022/06/26 07:31:18;;;;;;;5.80;5.20;;;;;;;25.72;79.87;100702.34;5042215;28;20199;-75
2022/06/26 07:36:31;;;;;;;5.47;4.95;;;;;;;25.78;76.09;100700.94;5058852;28;20203;-74
2022/06/26 07:38:57;;;;;;;5.88;5.28;;;;;;;25.78;76.88;100695.63;5041093;28;20285;-74
2022/06/26 07:41:24;;;;;;;5.25;4.80;;;;;;;25.80;78.00;100696.31;5037357;28;20718;-74
2022/06/26 07:43:50;;;;;;;5.53;5.03;;;;;;;25.90;76.44;100705.19;5044913;28;20198;-74
2022/06/26 07:46:18;;;;;;;5.53;5.03;;;;;;;26.00;76.43;100694.56;5060420;28;20667;-74
2022/06/26 07:48:48;;;;;;;5.82;4.68;;;;;;;26.13;73.02;100696.97;5044142;28;20217;-75
2022/06/26 07:51:14;;;;;;;7.70;5.00;;;;;;;26.22;74.36;100691.59;5043113;28;20239;-75
2022/06/26 07:53:40;;;;;;;5.35;4.75;;;;;;;26.30;73.47;100700.78;5058937;28;20610;-75
2022/06/26 07:56:07;;;;;;;6.18;5.15;;;;;;;26.37;74.39;100700.06;5059626;28;20205;-75
2022/06/26 07:58:33;;;;;;;5.25;4.80;;;;;;;26.40;72.03;100702.47;5054193;28;20206;-75
2022/06/26 08:00:59;;;;;;;6.10;4.78;;;;;;;26.53;73.06;100696.00;5060007;28;20218;-75
2022/06/26 08:03:27;;;;;;;5.97;5.38;;;;;;;26.56;72.97;100699.22;5059507;28;20347;-75
2022/06/26 08:05:54;;;;;;;6.05;5.45;;;;;;;26.77;70.31;100708.91;5057608;28;20203;-75
2022/06/26 08:08:20;;;;;;;5.45;4.57;;;;;;;26.90;70.05;100706.78;5057784;28;20218;-74
2022/06/26 08:10:47;;;;;;;5.50;4.60;;;;;;;26.92;69.78;100706.66;5060838;28;20207;-74
2022/06/26 08:13:13;;;;;;;7.05;5.88;;;;;;;26.92;69.46;100702.13;5053620;28;20656;-74
2022/06/26 08:15:40;;;;;;;6.45;5.28;;;;;;;26.97;68.16;100705.22;5052362;28;20206;-75
2022/06/26 08:18:07;;;;;;;5.40;4.90;;;;;;;27.08;69.90;100698.00;5054942;28;20229;-74
2022/06/26 08:20:35;;;;;;;5.45;4.95;;;;;;;27.01;67.57;100703.94;5060491;28;20202;-75
2022/06/26 08:23:01;;;;;;;5.45;4.60;;;;;;;27.11;66.66;100703.91;5056432;28;20222;-74
2022/06/26 08:25:27;;;;;;;7.95;5.18;;;;;;;27.21;68.77;100698.50;5058072;28;20194;-74
2022/06/26 08:27:54;;;;;;;5.95;5.35;;;;;;;27.29;66.37;100701.34;5050261;28;20722;-74
2022/06/26 08:30:20;;;;;;;5.80;5.30;;;;;;;27.38;67.64;100695.09;5057178;28;20203;-74
2022/06/26 08:32:47;;;;;;;5.57;5.07;;;;;;;27.48;64.38;100703.09;5058975;28;20416;-75
2022/06/26 08:35:14;;;;;;;5.32;4.82;;;;;;;27.64;63.78;100705.13;5050233;28;20195;-74
2022/06/26 08:37:42;;;;;;;5.35;4.85;;;;;;;27.67;62.85;100707.50;5050653;28;20207;-74
2022/06/26 08:40:10;;;;;;;4.70;4.30;;;;;;;27.74;62.20;100703.25;5053093;28;20256;-75
2022/06/26 08:42:39;;;;;;;5.05;4.35;;;;;;;27.84;62.20;100699.66;5057318;28;20329;-75
2022/06/26 08:45:06;;;;;;;4.90;4.40;;;;;;;27.93;59.88;100701.44;5056212;28;20321;-74
2022/06/26 08:47:37;;;;;;;6.00;5.40;;;;;;;28.08;60.79;100699.09;5060879;28;20198;-75
2022/06/26 08:50:04;;;;;;;6.68;6.00;;;;;;;28.18;61.41;100697.19;5058990;28;20369;-74
2022/06/26 08:52:31;;;;;;;5.72;4.80;;;;;;;28.18;59.08;100705.25;5059894;28;20218;-75
2022/06/26 08:54:59;;;;;;;7.80;4.28;;;;;;;28.21;57.91;100704.91;5062310;28;20203;-75
2022/06/26 08:57:26;;;;;;;4.18;3.80;;;;;;;28.37;57.45;100704.22;5059503;28;20657;-75
2022/06/26 08:59:52;;;;;;;4.35;3.85;;;;;;;28.33;56.05;100714.41;5057577;28;20214;-74
2022/06/26 09:02:18;;;;;;;4.70;4.30;;;;;;;28.29;58.06;100701.47;5060404;28;20241;-74
2022/06/26 09:04:45;;;;;;;4.32;3.92;;;;;;;28.42;58.12;100703.75;5062440;28;20722;-75
2022/06/26 09:07:11;;;;;;;4.60;4.18;;;;;;;28.19;57.37;100706.06;5054533;28;20209;-75
2022/06/26 09:09:40;;;;;;;4.80;4.40;;;;;;;28.29;58.92;100704.16;5055870;28;20198;-75
2022/06/26 09:12:08;;;;;;;4.07;3.67;;;;;;;28.40;56.70;100700.41;5057455;28;20225;-74
2022/06/26 09:14:35;;;;;;;4.88;4.40;;;;;;;28.47;56.24;100710.34;5060480;28;20198;-74
2022/06/26 09:17:04;;;;;;;6.20;4.20;;;;;;;28.54;57.12;100710.59;5055157;28;20202;-74
2022/06/26 09:19:36;;;;;;;4.20;3.90;;;;;;;28.45;54.94;100704.28;5059393;28;20566;-75
2022/06/26 09:22:07;;;;;;;4.30;3.90;;;;;;;28.38;55.46;100702.41;5060583;28;20226;-74
2022/06/26 09:24:36;;;;;;;4.13;3.83;;;;;;;28.58;53.42;100706.59;5057810;28;20346;-75
2022/06/26 09:27:05;;;;;;;3.78;3.35;;;;;;;28.68;53.99;100701.97;5059240;28;20203;-75
2022/06/26 09:29:33;;;;;;;3.70;3.40;;;;;;;28.60;53.68;100711.81;5060182;28;20190;-75
2022/06/26 09:32:08;;;;;;;3.85;3.55;;;;;;;28.81;51.78;100708.78;5058345;28;20218;-75
2022/06/26 09:34:35;;;;;;;3.70;3.40;;;;;;;29.04;52.70;100707.28;5055610;28;20694;-75
2022/06/26 09:37:04;;;;;;;4.18;3.78;;;;;;;29.24;50.80;100712.44;5056378;28;20202;-75
2022/06/26 09:39:32;;;;;;;3.90;3.40;;;;;;;29.05;51.21;100711.63;5058624;28;20206;-75
2022/06/26 09:42:03;;;;;;;3.92;3.63;;;;;;;28.66;52.34;100713.88;5074164;23;20242;-74
2022/06/26 09:44:30;;;;;;;4.05;3.35;;;;;;;28.71;52.32;100706.22;5045651;28;20211;-75
2022/06/26 09:46:58;;;;;;;4.07;3.40;;;;;;;28.95;52.13;100702.84;5032651;28;20698;-75
2022/06/26 09:49:24;;;;;;;3.70;3.40;;;;;;;29.25;50.21;100701.53;5054336;28;20229;-74
2022/06/26 09:51:51;;;;;;;4.65;3.53;;;;;;;29.53;50.78;100705.84;5062849;28;20194;-75
2022/06/26 09:54:17;;;;;;;4.10;3.22;;;;;;;29.34;49.73;100712.31;5043478;28;20202;-75
2022/06/26 09:56:44;;;;;;;3.63;3.33;;;;;;;29.05;48.66;100717.00;5060309;28;20199;-75
2022/06/26 09:59:11;;;;;;;3.40;3.10;;;;;;;28.81;49.35;100700.72;5055254;28;20227;-76
2022/06/26 10:07:07;;;;;;;3.60;3.30;;;;;;;29.03;48.19;100708.25;5039197;28;20597;-75
2022/06/26 10:09:35;;;;;;;3.53;3.22;;;;;;;29.26;48.73;100697.00;5062221;28;20218;-75
2022/06/26 10:12:04;;;;;;;3.70;3.30;;;;;;;29.51;49.48;100707.84;5061840;28;20261;-76
2022/06/26 10:14:34;;;;;;;3.60;3.30;;;;;;;29.39;48.68;100705.47;5059357;28;20397;-77
2022/06/26 10:17:16;;;;;;;3.38;3.08;;;;;;;29.13;47.72;100705.47;5054051;28;20198;-77
2022/06/26 10:19:47;;;;;;;3.58;3.28;;;;;;;28.93;47.66;100702.16;5042815;28;20225;-77
2022/06/26 10:22:14;;;;;;;3.30;3.00;;;;;;;29.22;49.36;100698.34;5054104;28;20210;-77
2022/06/26 10:24:52;;;;;;;3.17;2.92;;;;;;;29.69;49.73;100697.00;5057467;28;20545;-77
2022/06/26 10:27:25;;;;;;;3.50;3.20;;;;;;;30.19;48.31;100709.56;5058676;28;20195;-77
2022/06/26 10:29:51;;;;;;;4.75;3.33;;;;;;;30.24;46.41;100711.75;5056330;28;20223;-77
2022/06/26 10:32:23;;;;;;;3.10;2.90;;;;;;;30.17;46.28;100709.75;5061993;28;20676;-77
2022/06/26 10:34:56;;;;;;;4.43;2.88;;;;;;;30.01;47.48;100709.72;5062052;28;20715;-78
2022/06/26 10:37:23;;;;;;;3.38;2.78;;;;;;;29.92;47.75;100708.88;5059132;28;20209;-78
2022/06/26 10:39:51;;;;;;;3.20;2.88;;;;;;;29.91;47.80;100709.84;5055889;28;20784;-77
2022/06/26 10:45:10;;;;;;;3.28;2.97;;;;;;;30.66;48.71;100705.41;5058126;28;20190;-77
2022/06/26 10:47:49;;;;;;;3.38;3.10;;;;;;;31.01;44.35;100708.75;5057578;28;20586;-77
2022/06/26 10:50:29;;;;;;;3.40;3.10;;;;;;;31.21;44.86;100699.28;5056709;28;20245;-78
2022/06/26 10:53:14;;;;;;;3.40;3.10;;;;;;;31.10;42.70;100705.03;5059180;28;20203;-77
2022/06/26 10:55:41;;;;;;;2.85;2.60;;;;;;;30.76;42.82;100701.53;5059087;28;20203;-77
2022/06/26 10:58:07;;;;;;;3.25;2.95;;;;;;;30.64;47.29;100697.53;5058576;28;20205;-77
2022/06/26 11:00:34;;;;;;;4.80;2.85;;;;;;;30.51;46.49;100703.41;5054834;28;20219;-77
2022/06/26 11:03:00;;;;;;;3.10;2.80;;;;;;;30.60;43.84;100696.16;5056115;28;20221;-77
2022/06/26 11:05:29;;;;;;;3.08;2.88;;;;;;;30.44;43.65;100712.31;5053532;28;20775;-77
2022/06/26 11:07:55;;;;;;;3.47;3.17;;;;;;;30.34;46.38;100694.50;5044373;28;20225;-77
2022/06/26 11:10:25;;;;;;;3.65;2.65;;;;;;;30.32;44.57;100701.00;5054615;28;20211;-77
2022/06/26 11:12:53;;;;;;;2.90;2.70;;;;;;;30.43;46.36;100702.56;5056503;28;20199;-78
2022/06/26 11:15:22;;;;;;;3.75;2.80;;;;;;;30.69;42.93;100700.50;5061542;28;20676;-77
2022/06/26 11:17:53;;;;;;;2.97;2.78;;;;;;;31.15;44.57;100694.56;5037162;28;20704;-77
2022/06/26 11:23:16;;;;;;;4.30;2.80;;;;;;;31.05;40.61;100699.34;5054549;28;20651;-77
2022/06/26 11:25:43;;;;;;;3.47;2.75;;;;;;;31.17;40.97;100697.94;5052421;28;20210;-77
2022/06/26 11:28:10;;;;;;;3.65;2.58;;;;;;;31.19;41.21;100695.06;5060724;28;20199;-77
2022/06/26 11:30:37;;;;;;;6.05;2.92;;;;;;;31.20;41.74;100694.06;5059889;28;20219;-77
2022/06/26 11:33:04;;;;;;;3.15;2.70;;;;;;;31.01;43.29;100700.66;5056137;28;20202;-77
2022/06/26 11:35:31;;;;;;;3.28;2.60;;;;;;;30.87;42.97;100691.41;5057809;28;20305;-77
2022/06/26 11:37:58;;;;;;;4.07;2.88;;;;;;;30.82;43.40;100686.56;5055168;28;20729;-77
2022/06/26 11:40:25;;;;;;;2.92;2.72;;;;;;;31.21;43.16;100687.66;5056113;28;20574;-77